Time;durP1;ratioP1;P1;durP2;ratioP2;P2;SDS_P1;SDS_P2;PMS_P1;PMS_P2;Temp;Humidity;BMP_temperature;BMP_pressure;BME280_temperature;BME280_humidity;BME280_pressure;Samples;Min_cycle;Max_cycle;Signal;HPM_P1;HPM_P2
2022/01/15 09:40:56;;;;;;;14.47;5.57;;;;;;;2.12;100.00;100223.94;5108431;27;21330;-87
2022/01/15 09:43:24;;;;;;;17.70;5.63;;;;;;;2.79;100.00;100255.66;5090531;28;38732;-86
2022/01/15 09:45:53;;;;;;;14.33;5.67;;;;;;;3.25;100.00;100253.47;5089852;28;40765;-84
2022/01/15 09:48:21;;;;;;;10.83;5.07;;;;;;;3.59;100.00;100239.97;5089179;28;43684;-86
2022/01/15 09:50:51;;;;;;;8.67;4.37;;;;;;;3.97;100.00;100258.69;5089155;28;42255;-85
2022/01/15 09:53:20;;;;;;;10.10;4.30;;;;;;;4.12;100.00;100241.03;5103545;28;40447;-87
2022/01/15 09:55:48;;;;;;;12.00;5.50;;;;;;;4.40;98.92;100255.50;5109619;28;40827;-84
2022/01/15 09:58:17;;;;;;;8.90;4.90;;;;;;;4.53;96.54;100250.91;5110267;28;42669;-85
2022/01/15 10:00:45;;;;;;;9.37;4.50;;;;;;;4.64;95.33;100249.84;5109221;28;42073;-85
2022/01/15 10:03:13;;;;;;;13.47;4.77;;;;;;;4.69;93.98;100234.91;5091754;28;40204;-85
2022/01/15 10:05:41;;;;;;;11.80;5.40;;;;;;;4.89;92.52;100238.94;5090008;28;40464;-84
2022/01/15 10:08:12;;;;;;;13.43;5.00;;;;;;;4.99;92.04;100238.75;5091477;28;41802;-86
2022/01/15 10:10:42;;;;;;;11.43;3.73;;;;;;;5.07;91.08;100230.72;5108638;28;40836;-86
2022/01/15 10:13:15;;;;;;;11.80;4.87;;;;;;;5.13;90.65;100232.38;5075665;28;39128;-84
2022/01/15 10:15:47;;;;;;;9.47;4.47;;;;;;;5.18;89.57;100233.19;5091959;28;40661;-85
2022/01/15 10:18:23;;;;;;;16.27;6.13;;;;;;;5.19;89.00;100235.78;5092537;28;41835;-84
2022/01/15 10:20:53;;;;;;;10.07;4.43;;;;;;;5.24;88.73;100238.31;5108243;28;41401;-86
2022/01/15 10:23:23;;;;;;;12.87;5.00;;;;;;;5.30;87.93;100239.06;5091520;28;38957;-86
2022/01/15 10:26:14;;;;;;;16.87;5.47;;;;;;;5.32;87.28;100239.88;5091491;28;41038;-87
2022/01/15 10:28:53;;;;;;;13.27;5.17;;;;;;;5.37;86.88;100235.41;5113614;28;41870;-83
2022/01/15 10:31:24;;;;;;;10.37;4.37;;;;;;;5.34;86.85;100214.44;5121884;28;41038;-83
2022/01/15 10:33:53;;;;;;;7.03;4.27;;;;;;;5.30;86.10;100207.53;5104795;28;39069;-85
2022/01/15 10:36:23;;;;;;;12.83;5.10;;;;;;;5.38;85.94;100213.50;5121837;28;41879;-84
2022/01/15 10:38:52;;;;;;;12.17;4.40;;;;;;;5.43;85.62;100215.19;5103893;28;41811;-84
2022/01/15 10:41:34;;;;;;;8.20;3.60;;;;;;;5.61;85.31;100222.69;5104348;28;40795;-83
2022/01/15 10:44:22;;;;;;;10.40;4.17;;;;;;;5.62;84.87;100213.91;5092965;28;39702;-84
2022/01/15 10:46:52;;;;;;;9.20;3.90;;;;;;;5.75;84.58;100220.63;5125202;27;41962;-86
2022/01/15 10:49:25;;;;;;;8.27;3.73;;;;;;;5.81;84.03;100220.50;5098508;28;41637;-83
2022/01/15 10:52:10;;;;;;;7.97;4.17;;;;;;;5.83;83.84;100218.69;5097389;28;41246;-83
2022/01/15 10:55:11;;;;;;;9.30;4.20;;;;;;;5.81;83.64;100204.72;5094213;28;39823;-84
2022/01/15 10:57:41;;;;;;;9.23;3.90;;;;;;;5.84;83.08;100206.41;5111525;28;40749;-83
2022/01/15 11:00:19;;;;;;;10.40;3.67;;;;;;;5.96;83.06;100204.41;5091062;28;41708;-82
2022/01/15 11:02:50;;;;;;;9.67;3.63;;;;;;;5.96;82.27;100182.50;5093127;28;41838;-83
2022/01/15 11:05:40;;;;;;;9.87;4.53;;;;;;;6.13;82.18;100191.75;5110129;28;39290;-85
2022/01/15 11:08:14;;;;;;;5.93;3.00;;;;;;;6.07;81.86;100170.84;5106121;28;42252;-83
2022/01/15 11:10:53;;;;;;;9.40;3.80;;;;;;;6.19;82.13;100188.09;5080511;28;42770;-84
2022/01/15 11:13:25;;;;;;;8.37;3.87;;;;;;;6.21;81.26;100188.06;5079158;28;41814;-83
2022/01/15 11:15:56;;;;;;;12.10;3.63;;;;;;;6.18;81.47;100164.50;5091205;28;40510;-85
2022/01/15 11:18:28;;;;;;;5.53;2.70;;;;;;;6.27;80.61;100186.19;5081421;28;40731;-86
2022/01/15 11:20:58;;;;;;;10.37;3.97;;;;;;;6.30;80.74;100177.34;5061413;28;42127;-84
2022/01/15 11:23:28;;;;;;;6.33;3.37;;;;;;;6.35;80.69;100186.00;5077428;28;42169;-85
2022/01/15 11:25:58;;;;;;;7.33;3.87;;;;;;;6.32;80.21;100175.53;5093051;28;39152;-86
2022/01/15 11:28:29;;;;;;;6.70;3.67;;;;;;;6.42;80.56;100177.06;5076626;28;41446;-86
2022/01/15 11:31:00;;;;;;;7.53;3.43;;;;;;;6.48;79.66;100182.16;5090622;28;42931;-84
2022/01/15 11:33:32;;;;;;;6.83;3.70;;;;;;;6.49;79.45;100178.63;5093443;28;41245;-86
2022/01/15 11:36:01;;;;;;;7.43;3.97;;;;;;;6.35;79.67;100152.66;5077150;28;38995;-84
2022/01/15 11:38:39;;;;;;;7.57;4.03;;;;;;;6.29;79.15;100138.78;5092829;28;42023;-84
2022/01/15 11:41:07;;;;;;;7.70;3.63;;;;;;;6.37;79.08;100153.47;5076943;28;41719;-84
2022/01/15 11:43:43;;;;;;;5.93;3.23;;;;;;;6.50;79.28;100161.94;5093126;28;41191;-83
2022/01/15 11:46:25;;;;;;;7.07;4.03;;;;;;;6.51;78.86;100160.16;5091518;28;40836;-85
2022/01/15 11:49:31;;;;;;;6.37;3.60;;;;;;;6.51;78.98;100154.91;5057615;28;40666;-85
2022/01/15 11:52:22;;;;;;;8.17;3.47;;;;;;;6.57;79.03;100141.56;5056058;28;43212;-86
2022/01/15 11:55:16;;;;;;;7.67;4.13;;;;;;;6.65;79.08;100145.75;5092466;28;42056;-82
2022/01/15 11:58:03;;;;;;;5.97;3.70;;;;;;;6.64;78.18;100144.03;5093000;28;39605;-83
2022/01/15 12:00:42;;;;;;;7.97;3.67;;;;;;;6.57;78.26;100129.28;5055795;28;40919;-85
2022/01/15 12:03:14;;;;;;;6.83;3.83;;;;;;;6.66;78.05;100138.72;5075728;28;42671;-84
2022/01/15 12:05:48;;;;;;;6.73;3.30;;;;;;;6.68;77.68;100142.16;5092897;28;41205;-85
2022/01/15 12:08:30;;;;;;;6.03;3.07;;;;;;;6.76;78.21;100134.94;5076205;28;38772;-83
2022/01/15 12:10:59;;;;;;;5.27;2.90;;;;;;;6.72;76.99;100131.53;5076979;28;41073;-85
2022/01/15 12:13:29;;;;;;;6.50;3.57;;;;;;;6.66;76.86;100120.31;5076484;28;41573;-84
2022/01/15 12:16:39;;;;;;;7.33;3.43;;;;;;;6.77;76.42;100137.53;5076407;28;41298;-83
2022/01/15 12:19:07;;;;;;;7.43;3.50;;;;;;;6.77;76.74;100124.38;5077552;28;39090;-85
2022/01/15 12:21:57;;;;;;;6.60;3.57;;;;;;;6.78;76.58;100123.47;5075642;28;42370;-84
2022/01/15 12:24:44;;;;;;;8.83;4.43;;;;;;;6.76;76.71;100121.78;5086728;28;41697;-85
2022/01/15 12:27:15;;;;;;;5.83;2.53;;;;;;;6.76;76.78;100125.28;5089520;28;42853;-84
2022/01/15 12:29:44;;;;;;;6.83;3.73;;;;;;;6.76;76.62;100114.75;5075499;28;39336;-83
2022/01/15 12:32:12;;;;;;;3.87;3.07;;;;;;;6.66;76.65;100100.09;5091984;28;41653;-83
2022/01/15 12:34:41;;;;;;;6.03;3.40;;;;;;;6.72;76.64;100105.19;5092420;28;42597;-85
2022/01/15 12:37:15;;;;;;;7.33;3.67;;;;;;;6.73;76.57;100104.28;5075095;28;41236;-85
2022/01/15 12:39:43;;;;;;;7.23;3.80;;;;;;;6.56;75.95;100080.19;5091598;28;40126;-84
2022/01/15 12:42:13;;;;;;;5.50;2.77;;;;;;;6.62;75.59;100095.81;5075151;28;41029;-83
2022/01/15 12:44:42;;;;;;;4.13;2.80;;;;;;;6.68;75.72;100100.91;5074879;28;42022;-85
2022/01/15 12:47:10;;;;;;;5.50;3.07;;;;;;;6.71;76.19;100095.56;5091645;28;40967;-86
2022/01/15 12:49:40;;;;;;;4.63;2.30;;;;;;;6.75;75.96;100094.59;5090514;28;40329;-85
2022/01/15 12:52:11;;;;;;;7.37;3.07;;;;;;;6.44;75.59;100041.03;5073008;28;41437;-84
2022/01/15 12:54:40;;;;;;;6.50;3.53;;;;;;;6.65;75.59;100077.31;5072656;28;41822;-85
2022/01/15 12:57:08;;;;;;;4.50;2.83;;;;;;;6.66;75.59;100075.56;5074947;28;41062;-84
2022/01/15 12:59:38;;;;;;;5.17;3.50;;;;;;;6.63;75.46;100071.22;5090654;28;38857;-84
2022/01/15 13:02:07;;;;;;;5.10;3.00;;;;;;;6.59;74.33;100074.84;5073963;28;42205;-83
2022/01/15 13:04:34;;;;;;;3.60;2.10;;;;;;;6.56;75.13;100074.91;5086628;28;42807;-83
2022/01/15 13:07:03;;;;;;;3.60;3.03;;;;;;;6.60;75.12;100071.31;5070784;28;41781;-84
2022/01/15 13:09:44;;;;;;;7.13;2.43;;;;;;;6.63;74.93;100068.59;5078947;28;39930;-82
2022/01/15 13:12:12;;;;;;;3.13;1.90;;;;;;;6.53;75.20;100048.69;5083399;28;41756;-84
2022/01/15 13:14:41;;;;;;;3.27;1.97;;;;;;;6.64;75.04;100062.44;5072117;28;41805;-84
2022/01/15 13:17:27;;;;;;;3.90;2.40;;;;;;;6.69;75.09;100059.66;5074002;28;41016;-85
2022/01/15 13:19:55;;;;;;;3.63;2.20;;;;;;;6.59;75.02;100042.38;5074142;28;39024;-84
2022/01/15 13:22:23;;;;;;;5.93;3.23;;;;;;;6.60;74.78;100047.63;5074005;28;42020;-85
2022/01/15 13:25:05;;;;;;;4.23;2.90;;;;;;;6.66;74.77;100044.84;5057369;28;41731;-84
2022/01/15 13:27:34;;;;;;;4.83;2.87;;;;;;;6.68;74.76;100042.13;5068462;28;40820;-84
2022/01/15 13:30:05;;;;;;;3.43;1.90;;;;;;;6.65;74.62;100051.00;5067584;28;40403;-84
2022/01/15 13:32:32;;;;;;;4.63;2.60;;;;;;;6.64;74.58;100048.41;5086172;28;42331;-84
2022/01/15 13:35:12;;;;;;;4.73;2.60;;;;;;;6.59;73.92;100043.25;5089979;28;43671;-84
2022/01/15 13:37:51;;;;;;;4.30;2.83;;;;;;;6.46;74.14;100028.69;5090604;28;41240;-84
2022/01/15 13:40:36;;;;;;;4.53;3.03;;;;;;;6.48;73.89;100040.06;5053145;28;40432;-83
2022/01/15 13:43:06;;;;;;;4.57;2.80;;;;;;;6.44;74.20;100030.50;5071367;28;40540;-84
2022/01/15 13:45:36;;;;;;;4.13;2.77;;;;;;;6.38;74.37;100012.25;5076594;28;42166;-85
2022/01/15 13:48:25;;;;;;;3.60;2.83;;;;;;;6.45;74.55;100024.34;5068722;28;41527;-83
2022/01/15 13:53:44;;;;;;;4.43;2.63;;;;;;;6.33;73.90;100009.75;5069953;28;40444;-84
2022/01/15 13:56:18;;;;;;;6.97;2.73;;;;;;;6.40;74.15;100021.00;5088418;28;43515;-85
2022/01/15 13:58:47;;;;;;;4.20;1.93;;;;;;;6.28;73.60;100005.53;5084646;28;41140;-84
2022/01/15 14:01:24;;;;;;;4.67;2.90;;;;;;;6.33;73.73;100028.16;5088798;28;38969;-86
2022/01/15 14:03:52;;;;;;;2.43;1.97;;;;;;;6.22;73.69;100010.94;5071544;28;41593;-83
2022/01/15 14:06:20;;;;;;;5.87;2.60;;;;;;;6.28;74.05;100021.31;5073479;28;41543;-84
2022/01/15 14:08:49;;;;;;;5.33;2.73;;;;;;;6.33;73.90;100025.53;5073597;28;40981;-83
2022/01/15 14:11:19;;;;;;;3.63;2.47;;;;;;;6.22;73.24;100017.06;5073460;28;40151;-86
2022/01/15 14:13:46;;;;;;;5.30;2.90;;;;;;;6.30;73.26;100027.41;5090097;28;44727;-83
2022/01/15 14:16:22;;;;;;;4.73;2.97;;;;;;;5.91;73.31;99963.56;5090415;28;42697;-82
2022/01/15 14:19:01;;;;;;;2.97;2.20;;;;;;;6.22;73.59;100008.31;5073620;28;42213;-85
2022/01/15 14:24:20;;;;;;;5.00;2.20;;;;;;;6.23;73.64;100003.00;5073480;28;40707;-84
2022/01/15 14:26:56;;;;;;;3.37;2.00;;;;;;;6.15;73.64;99996.25;5074376;28;41324;-82
2022/01/15 14:29:25;;;;;;;4.63;2.70;;;;;;;6.19;73.66;99995.22;5077077;28;41194;-84
2022/01/15 14:31:57;;;;;;;4.43;2.73;;;;;;;6.27;73.86;100003.81;5094584;28;40579;-83
2022/01/15 14:34:25;;;;;;;4.13;2.57;;;;;;;6.18;73.46;99988.28;5076728;28;41032;-85
2022/01/15 14:36:53;;;;;;;5.40;2.73;;;;;;;6.19;73.15;100005.75;5077541;28;41765;-85
2022/01/15 14:39:21;;;;;;;5.27;3.10;;;;;;;6.07;73.11;99991.16;5074964;28;41139;-85
2022/01/15 14:41:50;;;;;;;6.03;2.70;;;;;;;6.13;73.49;99997.13;5094829;28;39165;-84
